createdAt,value
2022-11-28T00:01:21.375Z,5.00
2022-11-28T00:03:48.105Z,4.32
2022-11-28T00:06:15.081Z,4.60
2022-11-28T00:08:41.654Z,4.57
2022-11-28T00:11:10.637Z,4.75
2022-11-28T00:13:37.698Z,4.35
2022-11-28T00:16:06.099Z,4.97
2022-11-28T00:18:32.778Z,4.70
2022-11-28T00:21:05.042Z,4.78
2022-11-28T00:23:33.051Z,4.47
2022-11-28T00:26:05.131Z,4.35
2022-11-28T00:28:31.781Z,4.00
2022-11-28T00:30:58.206Z,5.03
2022-11-28T00:33:24.642Z,4.63
2022-11-28T00:35:51.308Z,4.50
2022-11-28T00:38:17.629Z,4.20
2022-11-28T00:40:43.924Z,4.40
2022-11-28T00:43:11.569Z,4.00
2022-11-28T00:45:37.929Z,4.53
2022-11-28T00:48:05.008Z,4.38
2022-11-28T00:50:31.615Z,4.60
2022-11-28T00:52:58.165Z,4.47
2022-11-28T00:55:24.510Z,4.60
2022-11-28T00:57:51.602Z,4.97
2022-11-28T01:00:18.366Z,3.90
2022-11-28T01:02:44.802Z,4.20
2022-11-28T01:05:11.310Z,4.72
2022-11-28T01:07:42.182Z,5.03
2022-11-28T01:10:11.001Z,4.53
2022-11-28T01:12:37.370Z,4.38
2022-11-28T01:15:06.309Z,3.83
2022-11-28T01:17:32.602Z,4.55
2022-11-28T01:19:59.097Z,4.23
2022-11-28T01:22:25.415Z,4.22
2022-11-28T01:24:51.848Z,4.35
2022-11-28T01:27:18.333Z,4.03
2022-11-28T01:29:44.665Z,4.05
2022-11-28T01:32:10.961Z,4.30
2022-11-28T01:34:37.289Z,3.53
2022-11-28T01:37:03.626Z,3.95
2022-11-28T01:39:33.299Z,4.53
2022-11-28T01:41:59.799Z,3.67
2022-11-28T01:44:26.185Z,3.93
2022-11-28T01:46:57.113Z,3.55
2022-11-28T01:49:35.945Z,3.63
2022-11-28T01:52:13.589Z,3.40
2022-11-28T01:54:43.812Z,3.85
2022-11-28T01:57:16.718Z,4.23
2022-11-28T01:59:58.554Z,3.90
2022-11-28T02:02:32.120Z,3.72
2022-11-28T02:04:59.150Z,4.07
2022-11-28T02:07:26.328Z,3.85
2022-11-28T02:09:52.970Z,3.87
2022-11-28T02:12:29.126Z,3.78
2022-11-28T02:15:27.790Z,3.72
2022-11-28T02:18:00.368Z,3.42
2022-11-28T02:20:32.464Z,3.83
2022-11-28T02:23:16.974Z,3.13
2022-11-28T02:25:55.522Z,3.92
2022-11-28T02:28:24.934Z,4.18
2022-11-28T02:31:26.489Z,3.60
2022-11-28T02:33:57.735Z,3.20
2022-11-28T02:36:47.340Z,3.80
2022-11-28T02:39:33.215Z,3.65
2022-11-28T02:42:14.493Z,3.47
2022-11-28T02:44:47.547Z,3.53
2022-11-28T02:47:33.899Z,3.70
2022-11-28T02:50:19.099Z,3.67
2022-11-28T02:52:57.517Z,3.60
2022-11-28T02:55:24.542Z,3.50
2022-11-28T02:57:53.749Z,3.38
2022-11-28T03:00:37.733Z,3.63
2022-11-28T03:03:18.051Z,3.17
2022-11-28T03:06:18.697Z,3.60
2022-11-28T03:09:11.274Z,3.30
2022-11-28T03:11:46.617Z,2.80
2022-11-28T03:14:20.107Z,3.50
2022-11-28T03:17:04.303Z,2.93
2022-11-28T03:19:37.466Z,3.10
2022-11-28T03:22:20.104Z,3.90
2022-11-28T03:25:13.418Z,2.88
2022-11-28T03:27:56.782Z,3.30
2022-11-28T03:30:32.431Z,3.37
2022-11-28T03:33:02.661Z,3.40
2022-11-28T03:35:32.986Z,3.17
2022-11-28T03:38:08.846Z,3.47
2022-11-28T03:40:42.789Z,4.07
2022-11-28T03:43:14.753Z,2.67
2022-11-28T03:45:46.269Z,2.88
2022-11-28T03:48:19.664Z,3.60
2022-11-28T03:50:52.942Z,3.13
2022-11-28T03:53:53.525Z,3.83
2022-11-28T03:56:26.337Z,3.57
2022-11-28T03:58:55.817Z,3.85
2022-11-28T04:01:32.053Z,3.25
2022-11-28T04:04:12.189Z,3.30
2022-11-28T04:06:55.992Z,3.67
2022-11-28T04:09:53.686Z,3.30
2022-11-28T04:12:29.798Z,3.40
2022-11-28T04:15:02.491Z,3.38
2022-11-28T04:17:42.707Z,3.97
2022-11-28T04:20:16.602Z,3.58
2022-11-28T04:22:51.985Z,3.53
2022-11-28T04:25:21.742Z,3.40
2022-11-28T04:27:51.987Z,3.95
2022-11-28T04:30:18.635Z,4.00
2022-11-28T04:32:51.670Z,3.85
2022-11-28T04:35:28.605Z,4.23
2022-11-28T04:37:56.066Z,4.10
2022-11-28T04:40:24.671Z,4.10
2022-11-28T04:42:58.260Z,3.72
2022-11-28T04:45:48.901Z,3.95
2022-11-28T04:48:15.375Z,4.30
2022-11-28T04:51:04.910Z,3.63
2022-11-28T04:53:33.582Z,4.22
2022-11-28T04:56:05.207Z,3.97
2022-11-28T04:58:39.363Z,4.00
2022-11-28T05:01:10.034Z,4.27
2022-11-28T05:03:42.612Z,4.60
2022-11-28T05:06:09.607Z,3.92
2022-11-28T05:08:36.041Z,4.13
2022-11-28T05:11:02.378Z,3.80
2022-11-28T05:13:28.894Z,3.33
2022-11-28T05:15:55.851Z,4.07
2022-11-28T05:18:22.231Z,4.13
2022-11-28T05:20:51.732Z,3.30
2022-11-28T05:23:18.086Z,4.32
2022-11-28T05:25:44.389Z,3.83
2022-11-28T05:28:10.730Z,4.13
2022-11-28T05:30:37.038Z,3.63
2022-11-28T05:33:05.213Z,3.83
2022-11-28T05:35:31.641Z,3.67
2022-11-28T05:37:57.927Z,3.43
2022-11-28T05:40:24.291Z,3.80
2022-11-28T05:42:50.611Z,3.75
2022-11-28T05:45:16.926Z,3.88
2022-11-28T05:47:43.237Z,3.72
2022-11-28T05:50:10.056Z,4.00
2022-11-28T05:52:36.491Z,3.80
2022-11-28T05:55:02.797Z,3.85
2022-11-28T05:57:29.985Z,4.25
2022-11-28T05:59:56.767Z,4.43
2022-11-28T06:02:23.132Z,3.50
2022-11-28T06:04:49.655Z,4.40
2022-11-28T06:07:16.070Z,3.83
2022-11-28T06:09:42.627Z,3.47
2022-11-28T06:12:09.396Z,4.60
2022-11-28T06:14:36.176Z,4.30
2022-11-28T06:17:03.238Z,4.45
2022-11-28T06:19:29.622Z,3.92
2022-11-28T06:21:56.596Z,3.47
2022-11-28T06:24:23.018Z,3.92
2022-11-28T06:26:49.351Z,3.60
2022-11-28T06:29:15.690Z,4.13
2022-11-28T06:31:42.032Z,4.22
2022-11-28T06:34:12.239Z,4.03
2022-11-28T06:36:39.529Z,4.22
2022-11-28T06:39:05.914Z,4.23
2022-11-28T06:41:32.266Z,4.25
2022-11-28T06:43:58.662Z,3.85
2022-11-28T06:46:25.021Z,3.90
2022-11-28T06:48:52.251Z,4.15
2022-11-28T06:51:19.476Z,4.60
2022-11-28T06:53:45.815Z,5.13
2022-11-28T06:56:15.119Z,4.35
2022-11-28T06:58:41.922Z,4.47
2022-11-28T07:01:14.534Z,4.30
2022-11-28T07:03:41.310Z,5.13
2022-11-28T07:06:08.357Z,4.80
2022-11-28T07:08:35.101Z,4.68
2022-11-28T07:11:13.610Z,4.30
2022-11-28T07:13:41.051Z,4.22
2022-11-28T07:16:10.428Z,4.30
2022-11-28T07:18:36.970Z,4.22
2022-11-28T07:21:03.606Z,4.90
2022-11-28T07:23:29.950Z,5.20
2022-11-28T07:26:01.070Z,5.18
2022-11-28T07:28:30.708Z,5.23
2022-11-28T07:31:06.252Z,4.95
2022-11-28T07:33:34.141Z,4.63
2022-11-28T07:36:02.939Z,4.80
2022-11-28T07:38:29.250Z,4.43
2022-11-28T07:41:01.902Z,5.23
2022-11-28T07:43:28.328Z,5.45
2022-11-28T07:46:01.131Z,5.85
2022-11-28T07:48:28.244Z,6.10
2022-11-28T07:50:56.713Z,5.80
2022-11-28T07:53:26.117Z,6.03
2022-11-28T07:55:54.626Z,6.68
2022-11-28T07:58:23.467Z,6.38
2022-11-28T08:00:51.263Z,6.88
2022-11-28T08:03:19.238Z,6.00
2022-11-28T08:05:50.094Z,6.07
2022-11-28T08:08:18.051Z,5.82
2022-11-28T08:10:45.439Z,6.80
2022-11-28T08:13:12.967Z,7.03
2022-11-28T08:15:40.391Z,7.65
2022-11-28T08:18:07.655Z,6.70
2022-11-28T08:20:37.204Z,7.00
2022-11-28T08:23:04.138Z,6.47
2022-11-28T08:25:30.471Z,6.85
2022-11-28T08:27:56.850Z,7.00
2022-11-28T08:30:23.325Z,7.10
2022-11-28T08:32:50.486Z,6.82
2022-11-28T08:35:17.113Z,6.45
2022-11-28T08:37:43.497Z,6.53
2022-11-28T08:40:10.381Z,6.30
2022-11-28T08:42:36.915Z,6.20
2022-11-28T08:45:03.943Z,5.72
2022-11-28T08:47:30.684Z,6.18
2022-11-28T08:49:57.054Z,6.60
2022-11-28T08:52:24.037Z,6.53
2022-11-28T08:54:50.465Z,6.40
2022-11-28T08:57:16.768Z,6.57
2022-11-28T08:59:43.372Z,6.35
2022-11-28T09:02:12.420Z,6.05
2022-11-28T09:04:38.726Z,6.63
2022-11-28T09:07:06.051Z,6.43
2022-11-28T09:09:35.468Z,5.80
2022-11-28T09:12:02.097Z,6.53
2022-11-28T09:14:28.409Z,5.97
2022-11-28T09:16:54.871Z,6.95
2022-11-28T09:19:21.455Z,5.90
2022-11-28T09:21:47.754Z,6.38
2022-11-28T09:24:14.134Z,6.45
2022-11-28T09:26:40.616Z,6.22
2022-11-28T09:29:07.038Z,7.00
2022-11-28T09:31:33.440Z,6.03
2022-11-28T09:33:59.871Z,7.05
2022-11-28T09:36:28.080Z,6.47
2022-11-28T09:38:54.492Z,7.05
2022-11-28T09:41:54.854Z,6.65
2022-11-28T09:44:52.972Z,8.17
2022-11-28T09:47:28.750Z,8.10
2022-11-28T09:50:10.603Z,7.60
2022-11-28T09:52:48.278Z,8.55
2022-11-28T09:55:38.207Z,8.45
2022-11-28T09:58:16.110Z,8.43
2022-11-28T10:00:54.291Z,7.93
2022-11-28T10:04:01.396Z,9.25
2022-11-28T10:06:40.545Z,9.85
2022-11-28T10:09:23.448Z,10.05
2022-11-28T10:12:27.606Z,9.50
2022-11-28T10:15:09.760Z,11.10
2022-11-28T10:18:09.121Z,11.23
2022-11-28T10:20:43.226Z,11.75
2022-11-28T10:23:44.209Z,11.35
2022-11-28T10:26:22.559Z,11.27
2022-11-28T10:28:53.600Z,11.05
2022-11-28T10:31:39.350Z,11.55
2022-11-28T10:34:16.467Z,12.15
2022-11-28T10:37:20.129Z,12.52
2022-11-28T10:39:47.293Z,12.97
2022-11-28T10:42:22.954Z,12.75
2022-11-28T10:45:11.614Z,12.85
2022-11-28T10:47:54.290Z,12.05
2022-11-28T10:50:36.865Z,13.52
2022-11-28T10:53:36.968Z,13.70
2022-11-28T10:56:26.512Z,13.38
2022-11-28T10:59:33.101Z,14.75
2022-11-28T11:02:01.101Z,13.40
2022-11-28T11:04:32.832Z,13.35
2022-11-28T11:07:19.513Z,13.17
2022-11-28T11:09:48.386Z,13.95
2022-11-28T11:12:21.636Z,13.48
2022-11-28T11:14:49.058Z,14.20
2022-11-28T11:17:36.153Z,13.70
2022-11-28T11:20:25.269Z,13.77
2022-11-28T11:23:10.397Z,14.32
2022-11-28T11:25:37.133Z,13.52
2022-11-28T11:28:04.941Z,13.27
2022-11-28T11:30:36.333Z,14.32
2022-11-28T11:33:06.076Z,14.43
2022-11-28T11:35:44.836Z,14.88
2022-11-28T11:38:20.329Z,15.00
2022-11-28T11:40:48.673Z,14.35
2022-11-28T11:43:47.444Z,14.13
2022-11-28T11:46:16.112Z,12.77
2022-11-28T11:48:45.903Z,14.20
2022-11-28T11:51:28.748Z,13.45
2022-11-28T11:54:02.947Z,14.90
2022-11-28T11:56:37.775Z,14.02
2022-11-28T11:59:13.808Z,13.60
2022-11-28T12:01:46.425Z,13.32
2022-11-28T12:04:44.669Z,14.90
2022-11-28T12:07:38.908Z,13.05
2022-11-28T12:10:10.824Z,13.52
2022-11-28T12:12:37.972Z,12.37
2022-11-28T12:15:11.875Z,13.63
2022-11-28T12:18:10.058Z,13.38
2022-11-28T12:20:49.831Z,12.95
2022-11-28T12:23:34.718Z,12.27
2022-11-28T12:26:38.598Z,12.37
2022-11-28T12:29:31.450Z,12.07
2022-11-28T12:32:19.183Z,11.90
2022-11-28T12:35:22.731Z,12.10
2022-11-28T12:38:12.185Z,12.57
2022-11-28T12:41:11.400Z,11.93
2022-11-28T12:43:57.819Z,11.48
2022-11-28T12:46:42.926Z,12.40
2022-11-28T12:49:26.222Z,13.18
2022-11-28T12:52:16.779Z,13.30
2022-11-28T12:55:01.749Z,13.53
2022-11-28T12:57:37.916Z,13.30
2022-11-28T13:00:24.901Z,13.20
2022-11-28T13:03:24.810Z,14.10
2022-11-28T13:06:09.781Z,13.50
2022-11-28T13:08:48.731Z,14.13
2022-11-28T13:11:30.191Z,14.60
2022-11-28T13:14:25.240Z,14.35
2022-11-28T13:16:54.648Z,12.75
2022-11-28T13:19:29.823Z,14.80
2022-11-28T13:22:02.926Z,14.67
2022-11-28T13:24:33.730Z,13.48
2022-11-28T13:27:09.372Z,13.57
2022-11-28T13:29:54.082Z,13.55
2022-11-28T13:32:42.186Z,13.18
2022-11-28T13:35:13.840Z,13.00
2022-11-28T13:40:42.726Z,13.00
2022-11-28T13:43:18.279Z,14.13
2022-11-28T13:45:46.741Z,13.90
2022-11-28T13:49:13.391Z,13.17
2022-11-28T13:51:31.460Z,13.30
2022-11-28T13:54:17.543Z,12.70
2022-11-28T13:57:03.718Z,13.50
2022-11-28T13:59:30.806Z,14.45
2022-11-28T14:02:00.985Z,13.93
2022-11-28T14:04:33.637Z,12.20
2022-11-28T14:07:08.568Z,13.30
2022-11-28T14:10:25.018Z,12.27
2022-11-28T14:13:31.652Z,12.00
2022-11-28T14:16:29.831Z,12.87
2022-11-28T14:19:17.298Z,12.52
2022-11-28T14:22:09.066Z,13.57
2022-11-28T14:24:49.148Z,13.50
2022-11-28T14:27:34.716Z,15.05
2022-11-28T14:30:02.075Z,17.23
2022-11-28T14:32:43.130Z,14.30
2022-11-28T14:35:39.555Z,12.65
2022-11-28T14:38:46.839Z,13.48
2022-11-28T14:41:16.309Z,11.75
2022-11-28T14:43:50.261Z,10.80
2022-11-28T14:46:26.512Z,12.52
2022-11-28T14:49:01.309Z,11.93
2022-11-28T14:52:15.921Z,12.13
2022-11-28T14:54:44.274Z,11.50
2022-11-28T14:57:32.505Z,11.37
2022-11-28T15:00:06.606Z,11.93
2022-11-28T15:02:48.953Z,12.52
2022-11-28T15:05:34.950Z,12.75
2022-11-28T15:08:33.220Z,12.23
2022-11-28T15:11:24.632Z,11.83
2022-11-28T15:14:21.134Z,11.93
2022-11-28T15:16:54.877Z,12.52
2022-11-28T15:19:26.554Z,12.32
2022-11-28T15:21:54.281Z,12.55
2022-11-28T15:24:33.245Z,12.73
2022-11-28T15:27:08.547Z,11.88
2022-11-28T15:29:36.826Z,11.38
2022-11-28T15:32:04.361Z,11.38
2022-11-28T15:34:35.462Z,12.48
2022-11-28T15:37:17.507Z,12.37
2022-11-28T15:39:47.512Z,11.70
2022-11-28T15:42:23.817Z,10.63
2022-11-28T15:44:57.726Z,11.93
2022-11-28T15:47:24.919Z,12.60
2022-11-28T15:50:09.691Z,12.97
2022-11-28T15:52:36.025Z,12.68
2022-11-28T15:55:02.897Z,13.73
2022-11-28T15:57:33.470Z,12.35
2022-11-28T16:00:02.527Z,10.98
2022-11-28T16:02:33.896Z,13.30
2022-11-28T16:05:06.355Z,10.77
2022-11-28T16:07:37.835Z,12.32
2022-11-28T16:10:17.117Z,10.90
2022-11-28T16:12:44.250Z,16.08
2022-11-28T16:15:22.207Z,14.63
2022-11-28T16:17:49.151Z,14.10
2022-11-28T16:20:26.899Z,13.82
2022-11-28T16:23:03.662Z,12.75
2022-11-28T16:25:32.709Z,13.27
2022-11-28T16:27:59.642Z,10.87
2022-11-28T16:30:37.083Z,10.73
2022-11-28T16:33:42.834Z,10.82
2022-11-28T16:36:16.862Z,9.45
2022-11-28T16:38:44.528Z,9.55
2022-11-28T16:41:21.176Z,9.97
2022-11-28T16:43:52.123Z,9.40
2022-11-28T16:46:24.339Z,9.20
2022-11-28T16:48:57.924Z,12.00
2022-11-28T16:51:35.946Z,12.38
2022-11-28T16:54:26.669Z,10.97
2022-11-28T16:56:57.885Z,9.85
2022-11-28T16:59:24.972Z,10.48
2022-11-28T17:01:55.297Z,11.15
2022-11-28T17:04:30.385Z,10.07
2022-11-28T17:06:59.300Z,10.70
2022-11-28T17:09:27.667Z,10.50
2022-11-28T17:12:03.084Z,12.07
2022-11-28T17:14:29.679Z,12.80
2022-11-28T17:16:56.062Z,12.07
2022-11-28T17:19:22.480Z,12.10
2022-11-28T17:21:52.017Z,11.05
2022-11-28T17:24:27.209Z,13.07
2022-11-28T17:26:54.338Z,11.70
2022-11-28T17:29:21.855Z,15.40
2022-11-28T17:31:48.984Z,16.63
2022-11-28T17:34:21.069Z,14.05
2022-11-28T17:36:50.038Z,13.10
2022-11-28T17:39:17.383Z,12.65
2022-11-28T17:41:45.416Z,11.55
2022-11-28T17:44:25.372Z,14.17
2022-11-28T17:46:55.484Z,12.68
2022-11-28T17:49:22.489Z,11.82
2022-11-28T17:51:49.809Z,12.68
2022-11-28T17:54:18.308Z,11.20
2022-11-28T17:56:46.494Z,8.27
2022-11-28T17:59:15.938Z,8.85
2022-11-28T18:01:43.008Z,8.57
2022-11-28T18:04:09.478Z,9.88
2022-11-28T18:06:36.253Z,6.32
2022-11-28T18:09:11.385Z,5.27
2022-11-28T18:11:39.191Z,8.63
2022-11-28T18:14:05.655Z,10.25
2022-11-28T18:16:32.102Z,8.65
2022-11-28T18:18:58.482Z,12.32
2022-11-28T18:21:26.626Z,6.97
2022-11-28T18:23:54.397Z,5.82
2022-11-28T18:26:23.823Z,5.18
2022-11-28T18:28:50.920Z,4.28
2022-11-28T18:31:24.656Z,4.22
2022-11-28T18:33:55.124Z,4.13
2022-11-28T18:36:26.186Z,4.47
2022-11-28T18:39:01.681Z,6.60
2022-11-28T18:41:29.366Z,6.35
2022-11-28T18:44:07.167Z,5.75
2022-11-28T18:46:34.491Z,4.87
2022-11-28T18:49:03.238Z,5.22
2022-11-28T18:51:31.858Z,4.70
2022-11-28T18:53:59.129Z,4.88
2022-11-28T18:56:26.404Z,5.03
2022-11-28T18:58:53.977Z,3.93
2022-11-28T19:01:25.272Z,3.50
2022-11-28T19:03:53.962Z,6.15
2022-11-28T19:06:20.907Z,5.88
2022-11-28T19:08:48.574Z,5.35
2022-11-28T19:11:16.762Z,5.37
2022-11-28T19:13:45.175Z,6.70
2022-11-28T19:16:18.328Z,4.97
2022-11-28T19:18:45.250Z,5.15
2022-11-28T19:21:18.203Z,5.07
2022-11-28T19:23:44.729Z,5.93
2022-11-28T19:26:13.482Z,5.75
2022-11-28T19:28:41.161Z,7.43
2022-11-28T19:31:16.494Z,6.68
2022-11-28T19:33:43.902Z,6.25
2022-11-28T19:36:12.836Z,6.60
2022-11-28T19:38:40.754Z,6.10
2022-11-28T19:41:12.622Z,6.72
2022-11-28T19:43:41.306Z,6.93
2022-11-28T19:46:09.893Z,8.00
2022-11-28T19:48:39.002Z,7.83
2022-11-28T19:51:06.623Z,7.88
2022-11-28T19:53:35.027Z,8.18
2022-11-28T19:56:06.864Z,10.35
2022-11-28T19:58:35.145Z,9.60
2022-11-28T20:01:12.689Z,10.73
2022-11-28T20:03:41.063Z,10.20
2022-11-28T20:06:12.773Z,9.75
2022-11-28T20:08:39.739Z,9.00
2022-11-28T20:11:13.911Z,11.68
2022-11-28T20:13:41.751Z,10.27
2022-11-28T20:16:09.700Z,14.93
2022-11-28T20:18:37.962Z,16.33
2022-11-28T20:21:11.114Z,16.02
2022-11-28T20:23:45.386Z,13.93
2022-11-28T20:26:15.626Z,15.70
2022-11-28T20:28:46.833Z,15.20
2022-11-28T20:31:27.027Z,15.45
2022-11-28T20:33:54.300Z,15.85
2022-11-28T20:36:22.873Z,13.75
2022-11-28T20:38:49.989Z,16.60
2022-11-28T20:41:18.650Z,15.85
2022-11-28T20:43:45.209Z,15.27
2022-11-28T20:46:15.629Z,16.65
2022-11-28T20:48:42.479Z,16.75
2022-11-28T20:51:16.930Z,15.67
2022-11-28T20:53:45.137Z,15.55
2022-11-28T20:56:14.706Z,17.52
2022-11-28T20:58:41.172Z,16.70
2022-11-28T21:01:07.861Z,16.50
2022-11-28T21:03:34.464Z,16.40
2022-11-28T21:06:01.464Z,16.58
2022-11-28T21:08:31.206Z,18.58
2022-11-28T21:10:57.531Z,16.00
2022-11-28T21:13:23.975Z,18.02
2022-11-28T21:15:50.492Z,16.43
2022-11-28T21:18:17.012Z,15.93
2022-11-28T21:20:45.414Z,17.05
2022-11-28T21:23:13.497Z,15.75
2022-11-28T21:25:41.891Z,15.93
2022-11-28T21:28:09.610Z,15.13
2022-11-28T21:30:41.452Z,16.88
2022-11-28T21:33:07.829Z,17.58
2022-11-28T21:35:34.720Z,17.67
2022-11-28T21:38:01.033Z,17.85
2022-11-28T21:40:27.328Z,17.37
2022-11-28T21:42:53.620Z,17.25
2022-11-28T21:45:21.238Z,17.27
2022-11-28T21:47:47.533Z,19.67
2022-11-28T21:50:15.849Z,18.58
2022-11-28T21:52:46.050Z,18.93
2022-11-28T21:55:12.397Z,17.98
2022-11-28T21:57:38.742Z,17.15
2022-11-28T22:00:05.865Z,18.20
2022-11-28T22:02:32.247Z,19.10
2022-11-28T22:04:59.881Z,19.57
2022-11-28T22:07:26.289Z,18.88
2022-11-28T22:09:52.618Z,21.75
2022-11-28T22:12:18.925Z,18.80
2022-11-28T22:14:46.121Z,19.00
2022-11-28T22:17:17.299Z,17.77
2022-11-28T22:19:45.176Z,19.80
2022-11-28T22:22:13.760Z,18.83
2022-11-28T22:24:44.775Z,19.50
2022-11-28T22:27:11.209Z,21.00
2022-11-28T22:29:37.565Z,20.33
2022-11-28T22:32:04.297Z,20.13
2022-11-28T22:34:33.510Z,20.55
2022-11-28T22:37:03.107Z,19.92
2022-11-28T22:39:29.809Z,19.05
2022-11-28T22:41:56.195Z,18.87
2022-11-28T22:44:22.777Z,20.38
2022-11-28T22:46:51.143Z,19.95
2022-11-28T22:49:17.637Z,18.75
2022-11-28T22:51:43.980Z,20.38
2022-11-28T22:54:12.417Z,20.27
2022-11-28T22:56:40.466Z,21.60
2022-11-28T22:59:11.610Z,20.73
2022-11-28T23:01:39.622Z,20.33
2022-11-28T23:04:06.174Z,21.17
2022-11-28T23:06:34.723Z,20.20
2022-11-28T23:09:04.698Z,21.85
2022-11-28T23:11:33.061Z,21.80
2022-11-28T23:14:00.497Z,24.38
2022-11-28T23:16:36.729Z,21.45
2022-11-28T23:19:10.237Z,22.00
2022-11-28T23:21:40.281Z,21.17
2022-11-28T23:24:07.543Z,21.83
2022-11-28T23:26:34.717Z,22.08
2022-11-28T23:29:03.315Z,22.77
2022-11-28T23:31:31.456Z,23.27
2022-11-28T23:33:58.529Z,22.88
2022-11-28T23:36:27.648Z,22.55
2022-11-28T23:38:59.641Z,22.52
2022-11-28T23:41:27.051Z,23.58
2022-11-28T23:43:53.367Z,20.13
2022-11-28T23:46:21.222Z,22.70
2022-11-28T23:48:47.994Z,21.38
2022-11-28T23:51:16.587Z,23.70
2022-11-28T23:53:43.356Z,22.98
2022-11-28T23:56:13.917Z,22.23
2022-11-28T23:58:41.053Z,21.67
